Flight Track Log - Related Links

Times and Time Zones

All times are in EDT time to prevent confusion due to time zone crossing. See the LIA312 flight status page for this flight to view local times or setup timezone preferences in your user account.

Time Position Orientation Groundspeed Altitude Reporting Facility
EDT Latitude Longitude Course Direction KTS MPH feet Rate Location/Type
Sat 04:23:54 PM 17.9667 -63.1167 255° West 160 184 3,900  Level San Juan Center
Sat 04:24:54 PM 17.9167 -63.1333 198° South 160 184 5,600 1,537 Climbing San Juan Center
Sat 04:25:55 PM 17.8833 -63.1333 180° South 160 184 7,000 1,388 Climbing San Juan Center
Sat 04:26:55 PM 17.8667 -63.1667 242° Southwest 170 196 8,400 1,050 Climbing San Juan Center
Sat 04:27:55 PM 17.8833 -63.2167 289° West 190 219 9,100 744 Climbing San Juan Center
Sat 04:28:56 PM 17.9000 -63.2833 285° West 240 276 9,900 843 Climbing San Juan Center
Sat 04:29:00 PM 17.9631 -63.4642 255° West  Level FlightAware Approximate
Sat 04:29:56 PM 17.9000 -63.3500 270° West 230 265 10,800  Level San Juan Center
Sat 04:31:57 PM 17.9167 -63.4833 278° West 250 288 12,000 398 Climbing San Juan Center
Sat 04:32:57 PM 17.9167 -63.5667 270° West 270 311 12,000  Level San Juan Center
Sat 04:33:57 PM 17.9167 -63.6500 270° West 270 311 12,000  Level San Juan Center
Sat 04:34:58 PM 17.9167 -63.7167 270° West 270 311 12,000  Level San Juan Center
Sat 04:35:58 PM 17.9000 -63.8000 258° West 270 311 12,000  Level San Juan Center
Sat 04:36:58 PM 17.8833 -63.8833 258° West 270 311 12,000  Level San Juan Center
Sat 04:37:58 PM 17.8667 -63.9667 258° West 270 311 12,000  Level San Juan Center
Sat 04:38:59 PM 17.8500 -64.0333 255° West 270 311 12,000 -198 Level San Juan Center
Sat 04:39:59 PM 17.8333 -64.1167 258° West 270 311 11,600 -650 Descending San Juan Center
Sat 04:40:59 PM 17.8000 -64.2000 247° West 290 334 10,700 -950 Descending San Juan Center
Sat 04:41:59 PM 17.7833 -64.2833 258° West 290 334 9,700 -942 Descending San Juan Center
Sat 04:43:00 PM 17.7500 -64.3667 247° West 290 334 8,800 -992 Descending San Juan Center
Sat 04:44:00 PM 17.7167 -64.4333 242° Southwest 280 322 7,700 -1,190 Descending San Juan Center
Sat 04:45:01 PM 17.7000 -64.5167 258° West 280 322 6,400 -1,339 Descending San Juan Center
Sat 04:46:01 PM 17.6833 -64.5833 255° West 240 276 5,000 -1,500 Descending San Juan Center
Sat 04:47:01 PM 17.6667 -64.6500 255° West 220 253 3,400 -1,388 Descending San Juan Center
Sat 04:48:02 PM 17.6667 -64.7000 270° West 210 242 2,200 -942 Descending San Juan Center
Sat 04:49:02 PM 17.6667 -64.7667 270° West 210 242 1,500 -350 Descending San Juan Center
Sat 04:50:02 PM 17.6667 -64.8333 270° West 190 219 1,500 -300 Level San Juan Center
Sat 04:51:02 PM 17.6833 -64.8333 360° North 200 230 900 -600 Descending San Juan Center

Login

Don't have an account? Register now (free) for customized features, flight alerts, and more!